sensor_id;sensor_type;location;lat;lon;timestamp;temperature;humidity
22321;DHT22;11328;53.928;18.522;2023-03-01T00:01:40;0.50;99.90
22321;DHT22;11328;53.928;18.522;2023-03-01T00:04:07;0.50;99.90
22321;DHT22;11328;53.928;18.522;2023-03-01T00:06:34;0.50;99.90
22321;DHT22;11328;53.928;18.522;2023-03-01T00:09:02;0.40;99.90
22321;DHT22;11328;53.928;18.522;2023-03-01T00:11:31;0.40;99.90
22321;DHT22;11328;53.928;18.522;2023-03-01T00:14:01;0.50;99.90
22321;DHT22;11328;53.928;18.522;2023-03-01T00:16:34;0.50;99.90
22321;DHT22;11328;53.928;18.522;2023-03-01T00:19:08;0.50;99.90
22321;DHT22;11328;53.928;18.522;2023-03-01T00:21:40;0.50;99.90
22321;DHT22;11328;53.928;18.522;2023-03-01T00:24:07;0.40;99.90
22321;DHT22;11328;53.928;18.522;2023-03-01T00:26:35;0.40;99.90
22321;DHT22;11328;53.928;18.522;2023-03-01T00:29:03;0.40;99.90
22321;DHT22;11328;53.928;18.522;2023-03-01T00:31:32;0.40;99.90
22321;DHT22;11328;53.928;18.522;2023-03-01T00:34:03;0.40;99.90
22321;DHT22;11328;53.928;18.522;2023-03-01T00:36:33;0.40;99.90
22321;DHT22;11328;53.928;18.522;2023-03-01T00:39:04;0.40;99.90
22321;DHT22;11328;53.928;18.522;2023-03-01T00:41:34;0.40;99.90
22321;DHT22;11328;53.928;18.522;2023-03-01T00:44:01;0.50;99.90
22321;DHT22;11328;53.928;18.522;2023-03-01T00:46:29;0.50;99.90
22321;DHT22;11328;53.928;18.522;2023-03-01T00:48:57;0.50;99.90
22321;DHT22;11328;53.928;18.522;2023-03-01T00:51:26;0.50;99.90
22321;DHT22;11328;53.928;18.522;2023-03-01T00:53:56;0.50;99.90
22321;DHT22;11328;53.928;18.522;2023-03-01T00:56:26;0.60;99.90
22321;DHT22;11328;53.928;18.522;2023-03-01T00:58:54;0.60;99.90
22321;DHT22;11328;53.928;18.522;2023-03-01T01:01:24;0.60;99.90
22321;DHT22;11328;53.928;18.522;2023-03-01T01:04:02;0.60;99.90
22321;DHT22;11328;53.928;18.522;2023-03-01T01:06:35;0.60;99.90
22321;DHT22;11328;53.928;18.522;2023-03-01T01:09:05;0.60;99.90
22321;DHT22;11328;53.928;18.522;2023-03-01T01:11:35;0.60;99.90
22321;DHT22;11328;53.928;18.522;2023-03-01T01:14:05;0.60;99.90
22321;DHT22;11328;53.928;18.522;2023-03-01T01:16:32;0.60;99.90
22321;DHT22;11328;53.928;18.522;2023-03-01T01:19:00;0.60;99.90
22321;DHT22;11328;53.928;18.522;2023-03-01T01:21:28;0.60;99.90
22321;DHT22;11328;53.928;18.522;2023-03-01T01:23:56;0.60;99.90
22321;DHT22;11328;53.928;18.522;2023-03-01T01:26:33;0.70;99.90
22321;DHT22;11328;53.928;18.522;2023-03-01T01:29:03;0.70;99.90
22321;DHT22;11328;53.928;18.522;2023-03-01T01:31:33;0.70;99.90
22321;DHT22;11328;53.928;18.522;2023-03-01T01:34:04;0.70;99.90
22321;DHT22;11328;53.928;18.522;2023-03-01T01:36:34;0.60;99.90
22321;DHT22;11328;53.928;18.522;2023-03-01T01:39:03;0.70;99.90
22321;DHT22;11328;53.928;18.522;2023-03-01T01:41:30;0.70;99.90
22321;DHT22;11328;53.928;18.522;2023-03-01T01:52:13;0.70;99.90
22321;DHT22;11328;53.928;18.522;2023-03-01T01:54:44;0.70;99.90
22321;DHT22;11328;53.928;18.522;2023-03-01T01:57:43;0.70;99.90
22321;DHT22;11328;53.928;18.522;2023-03-01T02:00:23;0.70;99.90
22321;DHT22;11328;53.928;18.522;2023-03-01T02:02:57;0.70;99.90
22321;DHT22;11328;53.928;18.522;2023-03-01T02:08:26;0.70;99.90
22321;DHT22;11328;53.928;18.522;2023-03-01T02:10:57;0.70;99.90
22321;DHT22;11328;53.928;18.522;2023-03-01T02:13:27;0.80;99.90
22321;DHT22;11328;53.928;18.522;2023-03-01T02:15:54;0.70;99.90
22321;DHT22;11328;53.928;18.522;2023-03-01T02:18:23;0.70;99.90
22321;DHT22;11328;53.928;18.522;2023-03-01T02:23:28;0.70;99.90
22321;DHT22;11328;53.928;18.522;2023-03-01T02:26:02;0.70;99.90
22321;DHT22;11328;53.928;18.522;2023-03-01T02:28:49;0.70;99.90
22321;DHT22;11328;53.928;18.522;2023-03-01T02:31:19;0.70;99.90
22321;DHT22;11328;53.928;18.522;2023-03-01T02:34:11;0.60;99.90
22321;DHT22;11328;53.928;18.522;2023-03-01T02:36:51;0.60;99.90
22321;DHT22;11328;53.928;18.522;2023-03-01T02:39:28;0.60;99.90
22321;DHT22;11328;53.928;18.522;2023-03-01T02:42:01;0.60;99.90
22321;DHT22;11328;53.928;18.522;2023-03-01T02:44:31;0.60;99.90
22321;DHT22;11328;53.928;18.522;2023-03-01T02:47:01;0.60;99.90
22321;DHT22;11328;53.928;18.522;2023-03-01T02:49:32;0.50;99.90
22321;DHT22;11328;53.928;18.522;2023-03-01T02:55:06;0.50;99.90
22321;DHT22;11328;53.928;18.522;2023-03-01T02:57:42;0.50;99.90
22321;DHT22;11328;53.928;18.522;2023-03-01T03:00:17;0.50;99.90
22321;DHT22;11328;53.928;18.522;2023-03-01T03:02:53;0.50;99.90
22321;DHT22;11328;53.928;18.522;2023-03-01T03:05:24;0.50;99.90
22321;DHT22;11328;53.928;18.522;2023-03-01T03:07:54;0.50;99.90
22321;DHT22;11328;53.928;18.522;2023-03-01T03:10:28;0.50;99.90
22321;DHT22;11328;53.928;18.522;2023-03-01T03:13:01;0.50;99.90
22321;DHT22;11328;53.928;18.522;2023-03-01T03:15:37;0.50;99.90
22321;DHT22;11328;53.928;18.522;2023-03-01T03:18:09;0.40;99.90
22321;DHT22;11328;53.928;18.522;2023-03-01T03:20:45;0.40;99.90
22321;DHT22;11328;53.928;18.522;2023-03-01T03:23:13;0.50;99.90
22321;DHT22;11328;53.928;18.522;2023-03-01T03:25:40;0.40;99.90
22321;DHT22;11328;53.928;18.522;2023-03-01T03:28:07;0.40;99.90
22321;DHT22;11328;53.928;18.522;2023-03-01T03:30:39;0.40;99.90
22321;DHT22;11328;53.928;18.522;2023-03-01T03:33:08;0.40;99.90
22321;DHT22;11328;53.928;18.522;2023-03-01T03:35:47;0.30;99.90
22321;DHT22;11328;53.928;18.522;2023-03-01T03:38:18;0.30;99.90
22321;DHT22;11328;53.928;18.522;2023-03-01T03:40:51;0.40;99.90
22321;DHT22;11328;53.928;18.522;2023-03-01T03:43:28;0.30;99.90
22321;DHT22;11328;53.928;18.522;2023-03-01T03:45:56;0.30;99.90
22321;DHT22;11328;53.928;18.522;2023-03-01T03:48:24;0.40;99.90
22321;DHT22;11328;53.928;18.522;2023-03-01T03:50:54;0.30;99.90
22321;DHT22;11328;53.928;18.522;2023-03-01T03:53:24;0.30;99.90
22321;DHT22;11328;53.928;18.522;2023-03-01T03:55:53;0.40;99.90
22321;DHT22;11328;53.928;18.522;2023-03-01T03:58:23;0.40;99.90
22321;DHT22;11328;53.928;18.522;2023-03-01T04:00:53;0.40;99.90
22321;DHT22;11328;53.928;18.522;2023-03-01T04:03:26;0.40;99.90
22321;DHT22;11328;53.928;18.522;2023-03-01T04:05:57;0.40;99.90
22321;DHT22;11328;53.928;18.522;2023-03-01T04:08:26;0.30;99.90
22321;DHT22;11328;53.928;18.522;2023-03-01T04:11:00;0.40;99.90
22321;DHT22;11328;53.928;18.522;2023-03-01T04:13:48;0.40;99.90
22321;DHT22;11328;53.928;18.522;2023-03-01T04:16:15;0.30;99.90
22321;DHT22;11328;53.928;18.522;2023-03-01T04:18:43;0.40;99.90
22321;DHT22;11328;53.928;18.522;2023-03-01T04:21:11;0.30;99.90
22321;DHT22;11328;53.928;18.522;2023-03-01T04:23:39;0.30;99.90
22321;DHT22;11328;53.928;18.522;2023-03-01T04:26:07;0.30;99.90
22321;DHT22;11328;53.928;18.522;2023-03-01T04:28:37;0.40;99.90
22321;DHT22;11328;53.928;18.522;2023-03-01T04:31:12;0.30;99.90
22321;DHT22;11328;53.928;18.522;2023-03-01T04:33:48;0.30;99.90
22321;DHT22;11328;53.928;18.522;2023-03-01T04:36:20;0.30;99.90
22321;DHT22;11328;53.928;18.522;2023-03-01T04:38:49;0.30;99.90
22321;DHT22;11328;53.928;18.522;2023-03-01T04:41:18;0.30;99.90
22321;DHT22;11328;53.928;18.522;2023-03-01T04:43:47;0.30;99.90
22321;DHT22;11328;53.928;18.522;2023-03-01T04:46:17;0.20;99.90
22321;DHT22;11328;53.928;18.522;2023-03-01T04:48:48;0.20;99.90
22321;DHT22;11328;53.928;18.522;2023-03-01T04:51:16;0.20;99.90
22321;DHT22;11328;53.928;18.522;2023-03-01T04:53:44;0.20;99.90
22321;DHT22;11328;53.928;18.522;2023-03-01T04:56:12;0.20;99.90
22321;DHT22;11328;53.928;18.522;2023-03-01T04:58:40;0.20;99.90
22321;DHT22;11328;53.928;18.522;2023-03-01T05:01:13;0.20;99.90
22321;DHT22;11328;53.928;18.522;2023-03-01T05:03:47;0.10;99.90
22321;DHT22;11328;53.928;18.522;2023-03-01T05:06:17;0.20;99.90
22321;DHT22;11328;53.928;18.522;2023-03-01T05:08:44;0.10;99.90
22321;DHT22;11328;53.928;18.522;2023-03-01T05:11:12;0.10;99.90
22321;DHT22;11328;53.928;18.522;2023-03-01T05:13:39;0.10;99.90
22321;DHT22;11328;53.928;18.522;2023-03-01T05:16:08;0.10;99.90
22321;DHT22;11328;53.928;18.522;2023-03-01T05:18:39;0.10;99.90
22321;DHT22;11328;53.928;18.522;2023-03-01T05:21:16;0.10;99.90
22321;DHT22;11328;53.928;18.522;2023-03-01T05:23:44;0.20;99.90
22321;DHT22;11328;53.928;18.522;2023-03-01T05:26:14;0.20;99.90
22321;DHT22;11328;53.928;18.522;2023-03-01T05:28:54;0.20;99.90
22321;DHT22;11328;53.928;18.522;2023-03-01T05:31:26;0.20;99.90
22321;DHT22;11328;53.928;18.522;2023-03-01T05:33:54;0.30;99.90
22321;DHT22;11328;53.928;18.522;2023-03-01T05:50:06;0.30;99.90
22321;DHT22;11328;53.928;18.522;2023-03-01T05:52:34;0.70;99.90
22321;DHT22;11328;53.928;18.522;2023-03-01T05:55:01;0.60;99.90
22321;DHT22;11328;53.928;18.522;2023-03-01T05:57:30;0.60;99.90
22321;DHT22;11328;53.928;18.522;2023-03-01T05:59:57;0.50;99.90
22321;DHT22;11328;53.928;18.522;2023-03-01T06:02:24;0.50;99.90
22321;DHT22;11328;53.928;18.522;2023-03-01T06:04:51;0.50;99.90
22321;DHT22;11328;53.928;18.522;2023-03-01T06:07:18;0.50;99.90
22321;DHT22;11328;53.928;18.522;2023-03-01T06:09:45;0.50;99.90
22321;DHT22;11328;53.928;18.522;2023-03-01T06:12:12;0.40;99.90
22321;DHT22;11328;53.928;18.522;2023-03-01T06:14:39;0.40;99.90
22321;DHT22;11328;53.928;18.522;2023-03-01T06:17:06;0.40;99.90
22321;DHT22;11328;53.928;18.522;2023-03-01T06:19:33;0.40;99.90
22321;DHT22;11328;53.928;18.522;2023-03-01T06:22:00;0.30;99.90
22321;DHT22;11328;53.928;18.522;2023-03-01T06:24:26;0.40;99.90
22321;DHT22;11328;53.928;18.522;2023-03-01T06:26:55;0.40;99.90
22321;DHT22;11328;53.928;18.522;2023-03-01T06:29:22;0.40;99.90
22321;DHT22;11328;53.928;18.522;2023-03-01T06:31:49;0.50;99.90
22321;DHT22;11328;53.928;18.522;2023-03-01T06:34:19;0.50;99.90
22321;DHT22;11328;53.928;18.522;2023-03-01T06:36:48;0.40;99.90
22321;DHT22;11328;53.928;18.522;2023-03-01T06:39:15;0.40;99.90
22321;DHT22;11328;53.928;18.522;2023-03-01T06:41:43;0.50;99.90
22321;DHT22;11328;53.928;18.522;2023-03-01T06:44:11;0.50;99.90
22321;DHT22;11328;53.928;18.522;2023-03-01T06:46:39;0.50;99.90
22321;DHT22;11328;53.928;18.522;2023-03-01T06:49:07;0.50;99.90
22321;DHT22;11328;53.928;18.522;2023-03-01T06:51:36;0.60;99.90
22321;DHT22;11328;53.928;18.522;2023-03-01T06:54:04;0.50;99.90
22321;DHT22;11328;53.928;18.522;2023-03-01T06:56:32;0.50;99.90
22321;DHT22;11328;53.928;18.522;2023-03-01T06:58:59;0.50;99.90
22321;DHT22;11328;53.928;18.522;2023-03-01T07:01:26;0.60;99.90
22321;DHT22;11328;53.928;18.522;2023-03-01T07:03:53;0.60;99.90
22321;DHT22;11328;53.928;18.522;2023-03-01T07:06:21;0.60;99.90
22321;DHT22;11328;53.928;18.522;2023-03-01T07:08:49;0.60;99.90
22321;DHT22;11328;53.928;18.522;2023-03-01T07:11:16;0.50;99.90
22321;DHT22;11328;53.928;18.522;2023-03-01T07:13:43;0.60;99.90
22321;DHT22;11328;53.928;18.522;2023-03-01T07:16:10;0.60;99.90
22321;DHT22;11328;53.928;18.522;2023-03-01T07:18:40;0.60;99.90
22321;DHT22;11328;53.928;18.522;2023-03-01T07:21:08;0.70;99.90
22321;DHT22;11328;53.928;18.522;2023-03-01T07:23:37;0.80;99.90
22321;DHT22;11328;53.928;18.522;2023-03-01T07:26:04;0.80;99.90
22321;DHT22;11328;53.928;18.522;2023-03-01T07:28:31;0.90;99.90
22321;DHT22;11328;53.928;18.522;2023-03-01T07:31:02;1.00;99.90
22321;DHT22;11328;53.928;18.522;2023-03-01T07:33:29;1.00;99.90
22321;DHT22;11328;53.928;18.522;2023-03-01T07:35:58;1.10;99.90
22321;DHT22;11328;53.928;18.522;2023-03-01T07:38:28;1.10;99.90
22321;DHT22;11328;53.928;18.522;2023-03-01T07:41:00;1.10;99.90
22321;DHT22;11328;53.928;18.522;2023-03-01T07:43:30;1.00;99.90
22321;DHT22;11328;53.928;18.522;2023-03-01T07:46:02;1.00;99.90
22321;DHT22;11328;53.928;18.522;2023-03-01T07:48:30;1.00;99.90
22321;DHT22;11328;53.928;18.522;2023-03-01T07:50:59;1.10;99.90
22321;DHT22;11328;53.928;18.522;2023-03-01T07:53:27;1.20;99.90
22321;DHT22;11328;53.928;18.522;2023-03-01T07:56:10;1.10;99.90
22321;DHT22;11328;53.928;18.522;2023-03-01T07:58:41;1.10;99.90
22321;DHT22;11328;53.928;18.522;2023-03-01T08:01:12;1.30;99.90
22321;DHT22;11328;53.928;18.522;2023-03-01T08:03:41;1.30;99.90
22321;DHT22;11328;53.928;18.522;2023-03-01T08:06:11;1.40;99.90
22321;DHT22;11328;53.928;18.522;2023-03-01T08:08:39;1.40;99.90
22321;DHT22;11328;53.928;18.522;2023-03-01T08:11:08;1.50;99.90
22321;DHT22;11328;53.928;18.522;2023-03-01T08:13:41;1.60;99.90
22321;DHT22;11328;53.928;18.522;2023-03-01T08:16:13;1.70;99.90
22321;DHT22;11328;53.928;18.522;2023-03-01T08:18:41;1.80;99.90
22321;DHT22;11328;53.928;18.522;2023-03-01T08:21:14;1.80;99.90
22321;DHT22;11328;53.928;18.522;2023-03-01T08:23:43;1.90;99.90
22321;DHT22;11328;53.928;18.522;2023-03-01T08:26:16;1.90;99.90
22321;DHT22;11328;53.928;18.522;2023-03-01T08:28:45;2.00;99.90
22321;DHT22;11328;53.928;18.522;2023-03-01T08:31:26;2.20;99.90
22321;DHT22;11328;53.928;18.522;2023-03-01T08:33:58;2.20;99.90
22321;DHT22;11328;53.928;18.522;2023-03-01T08:36:38;2.30;99.90
22321;DHT22;11328;53.928;18.522;2023-03-01T08:39:08;2.30;99.90
22321;DHT22;11328;53.928;18.522;2023-03-01T08:41:37;2.30;99.90
22321;DHT22;11328;53.928;18.522;2023-03-01T08:44:04;2.50;99.90
22321;DHT22;11328;53.928;18.522;2023-03-01T08:46:42;2.60;99.90
22321;DHT22;11328;53.928;18.522;2023-03-01T08:49:17;2.50;99.90
22321;DHT22;11328;53.928;18.522;2023-03-01T08:51:46;2.60;99.90
22321;DHT22;11328;53.928;18.522;2023-03-01T08:54:16;2.60;99.90
22321;DHT22;11328;53.928;18.522;2023-03-01T08:56:46;2.70;99.90
22321;DHT22;11328;53.928;18.522;2023-03-01T08:59:15;2.90;99.90
22321;DHT22;11328;53.928;18.522;2023-03-01T09:01:43;2.90;99.90
22321;DHT22;11328;53.928;18.522;2023-03-01T09:04:11;2.90;99.90
22321;DHT22;11328;53.928;18.522;2023-03-01T09:06:39;2.90;99.90
22321;DHT22;11328;53.928;18.522;2023-03-01T09:09:07;3.00;99.90
22321;DHT22;11328;53.928;18.522;2023-03-01T09:11:42;3.10;99.90
22321;DHT22;11328;53.928;18.522;2023-03-01T09:14:11;3.10;99.90
22321;DHT22;11328;53.928;18.522;2023-03-01T09:16:39;3.20;99.90
22321;DHT22;11328;53.928;18.522;2023-03-01T09:19:06;3.30;99.90
22321;DHT22;11328;53.928;18.522;2023-03-01T09:21:33;3.30;99.90
22321;DHT22;11328;53.928;18.522;2023-03-01T09:24:15;3.40;99.90
22321;DHT22;11328;53.928;18.522;2023-03-01T09:26:42;3.70;99.90
22321;DHT22;11328;53.928;18.522;2023-03-01T09:29:15;3.90;99.90
22321;DHT22;11328;53.928;18.522;2023-03-01T09:31:42;4.10;99.90
22321;DHT22;11328;53.928;18.522;2023-03-01T09:34:10;4.20;99.90
22321;DHT22;11328;53.928;18.522;2023-03-01T09:36:37;4.20;99.90
22321;DHT22;11328;53.928;18.522;2023-03-01T09:39:04;4.30;99.90
22321;DHT22;11328;53.928;18.522;2023-03-01T09:47:12;4.70;99.90
22321;DHT22;11328;53.928;18.522;2023-03-01T09:50:12;4.60;99.90
22321;DHT22;11328;53.928;18.522;2023-03-01T09:52:42;4.70;99.90
22321;DHT22;11328;53.928;18.522;2023-03-01T09:55:20;4.90;99.90
22321;DHT22;11328;53.928;18.522;2023-03-01T10:00:43;5.10;99.90
22321;DHT22;11328;53.928;18.522;2023-03-01T10:03:21;5.20;99.90
22321;DHT22;11328;53.928;18.522;2023-03-01T10:09:17;5.40;99.90
22321;DHT22;11328;53.928;18.522;2023-03-01T10:11:53;5.50;99.90
22321;DHT22;11328;53.928;18.522;2023-03-01T10:17:39;5.60;99.90
22321;DHT22;11328;53.928;18.522;2023-03-01T10:20:21;5.70;99.90
22321;DHT22;11328;53.928;18.522;2023-03-01T10:22:53;5.80;99.90
22321;DHT22;11328;53.928;18.522;2023-03-01T10:30:50;5.90;99.90
22321;DHT22;11328;53.928;18.522;2023-03-01T10:33:38;5.90;99.90
22321;DHT22;11328;53.928;18.522;2023-03-01T10:36:08;5.90;99.90
22321;DHT22;11328;53.928;18.522;2023-03-01T10:38:55;6.00;99.90
22321;DHT22;11328;53.928;18.522;2023-03-01T10:41:26;6.00;99.90
22321;DHT22;11328;53.928;18.522;2023-03-01T10:43:56;6.20;99.90
22321;DHT22;11328;53.928;18.522;2023-03-01T10:46:33;6.20;99.90
22321;DHT22;11328;53.928;18.522;2023-03-01T10:49:22;6.30;99.90
22321;DHT22;11328;53.928;18.522;2023-03-01T10:51:51;6.30;99.90
22321;DHT22;11328;53.928;18.522;2023-03-01T10:54:20;6.30;99.90
22321;DHT22;11328;53.928;18.522;2023-03-01T10:56:53;6.20;99.90
22321;DHT22;11328;53.928;18.522;2023-03-01T10:59:35;6.40;99.90
22321;DHT22;11328;53.928;18.522;2023-03-01T11:02:15;6.30;99.90
22321;DHT22;11328;53.928;18.522;2023-03-01T11:05:13;6.40;99.90
22321;DHT22;11328;53.928;18.522;2023-03-01T11:07:53;6.40;99.90
22321;DHT22;11328;53.928;18.522;2023-03-01T11:10:27;6.40;99.90
22321;DHT22;11328;53.928;18.522;2023-03-01T11:13:28;6.50;99.90
22321;DHT22;11328;53.928;18.522;2023-03-01T11:16:10;6.50;99.90
22321;DHT22;11328;53.928;18.522;2023-03-01T11:18:39;6.70;99.90
22321;DHT22;11328;53.928;18.522;2023-03-01T11:21:15;6.70;99.90
22321;DHT22;11328;53.928;18.522;2023-03-01T11:23:45;6.80;99.90
22321;DHT22;11328;53.928;18.522;2023-03-01T11:26:15;7.00;99.90
22321;DHT22;11328;53.928;18.522;2023-03-01T11:28:50;7.00;99.90
22321;DHT22;11328;53.928;18.522;2023-03-01T11:31:23;6.90;99.90
22321;DHT22;11328;53.928;18.522;2023-03-01T11:34:12;7.10;99.90
22321;DHT22;11328;53.928;18.522;2023-03-01T11:42:42;6.90;99.90
22321;DHT22;11328;53.928;18.522;2023-03-01T11:45:16;6.90;99.90
22321;DHT22;11328;53.928;18.522;2023-03-01T11:48:05;6.80;99.90
22321;DHT22;11328;53.928;18.522;2023-03-01T11:50:45;6.90;99.90
22321;DHT22;11328;53.928;18.522;2023-03-01T11:59:19;6.90;99.90
22321;DHT22;11328;53.928;18.522;2023-03-01T12:08:01;7.10;99.90
22321;DHT22;11328;53.928;18.522;2023-03-01T12:19:31;7.20;99.90
22321;DHT22;11328;53.928;18.522;2023-03-01T12:22:30;7.30;99.90
22321;DHT22;11328;53.928;18.522;2023-03-01T12:28:26;7.20;99.90
22321;DHT22;11328;53.928;18.522;2023-03-01T12:39:56;7.10;99.90
22321;DHT22;11328;53.928;18.522;2023-03-01T12:43:21;7.10;99.90
22321;DHT22;11328;53.928;18.522;2023-03-01T12:49:23;7.00;99.90
22321;DHT22;11328;53.928;18.522;2023-03-01T12:52:02;6.90;99.90
22321;DHT22;11328;53.928;18.522;2023-03-01T12:54:36;6.90;99.90
22321;DHT22;11328;53.928;18.522;2023-03-01T12:57:31;6.80;99.90
22321;DHT22;11328;53.928;18.522;2023-03-01T13:00:17;6.80;99.90
22321;DHT22;11328;53.928;18.522;2023-03-01T13:02:48;6.90;99.90
22321;DHT22;11328;53.928;18.522;2023-03-01T13:05:39;7.10;99.90
22321;DHT22;11328;53.928;18.522;2023-03-01T13:08:58;7.20;99.90
22321;DHT22;11328;53.928;18.522;2023-03-01T13:11:30;7.20;99.90
22321;DHT22;11328;53.928;18.522;2023-03-01T13:17:01;7.40;99.90
22321;DHT22;11328;53.928;18.522;2023-03-01T13:19:29;7.40;99.90
22321;DHT22;11328;53.928;18.522;2023-03-01T13:21:58;7.30;99.90
22321;DHT22;11328;53.928;18.522;2023-03-01T13:24:34;7.30;99.90
22321;DHT22;11328;53.928;18.522;2023-03-01T13:29:55;7.20;99.90
22321;DHT22;11328;53.928;18.522;2023-03-01T13:32:35;7.20;99.90
22321;DHT22;11328;53.928;18.522;2023-03-01T13:37:46;7.10;99.90
22321;DHT22;11328;53.928;18.522;2023-03-01T13:45:38;7.20;99.90
22321;DHT22;11328;53.928;18.522;2023-03-01T13:48:16;7.10;99.90
22321;DHT22;11328;53.928;18.522;2023-03-01T13:50:53;7.20;99.90
22321;DHT22;11328;53.928;18.522;2023-03-01T13:53:26;7.20;99.90
22321;DHT22;11328;53.928;18.522;2023-03-01T13:59:15;7.00;99.90
22321;DHT22;11328;53.928;18.522;2023-03-01T14:01:44;7.10;99.90
22321;DHT22;11328;53.928;18.522;2023-03-01T14:04:26;7.10;99.90
22321;DHT22;11328;53.928;18.522;2023-03-01T14:07:21;7.20;99.90
22321;DHT22;11328;53.928;18.522;2023-03-01T14:09:58;7.20;99.90
22321;DHT22;11328;53.928;18.522;2023-03-01T14:12:43;7.10;99.90
22321;DHT22;11328;53.928;18.522;2023-03-01T14:15:25;7.10;99.90
22321;DHT22;11328;53.928;18.522;2023-03-01T14:20:30;7.10;99.90
22321;DHT22;11328;53.928;18.522;2023-03-01T14:23:09;7.20;99.90
22321;DHT22;11328;53.928;18.522;2023-03-01T14:25:38;7.20;99.90
22321;DHT22;11328;53.928;18.522;2023-03-01T14:28:17;7.30;99.90
22321;DHT22;11328;53.928;18.522;2023-03-01T14:30:52;7.30;99.90
22321;DHT22;11328;53.928;18.522;2023-03-01T14:36:25;7.30;99.90
22321;DHT22;11328;53.928;18.522;2023-03-01T14:38:51;7.10;99.90
22321;DHT22;11328;53.928;18.522;2023-03-01T14:41:21;7.00;99.90
22321;DHT22;11328;53.928;18.522;2023-03-01T14:43:55;6.80;99.90
22321;DHT22;11328;53.928;18.522;2023-03-01T14:46:36;6.80;99.90
22321;DHT22;11328;53.928;18.522;2023-03-01T14:49:19;7.00;99.90
22321;DHT22;11328;53.928;18.522;2023-03-01T14:54:41;7.10;99.90
22321;DHT22;11328;53.928;18.522;2023-03-01T14:57:16;7.10;99.90
22321;DHT22;11328;53.928;18.522;2023-03-01T14:59:44;7.10;99.90
22321;DHT22;11328;53.928;18.522;2023-03-01T15:02:16;7.00;99.90
22321;DHT22;11328;53.928;18.522;2023-03-01T15:04:48;7.00;99.90
22321;DHT22;11328;53.928;18.522;2023-03-01T15:07:20;7.00;99.90
22321;DHT22;11328;53.928;18.522;2023-03-01T15:09:49;6.90;99.90
22321;DHT22;11328;53.928;18.522;2023-03-01T15:14:57;6.90;99.90
22321;DHT22;11328;53.928;18.522;2023-03-01T15:17:31;6.80;99.90
22321;DHT22;11328;53.928;18.522;2023-03-01T15:20:03;6.70;99.90
22321;DHT22;11328;53.928;18.522;2023-03-01T15:22:35;6.70;99.90
22321;DHT22;11328;53.928;18.522;2023-03-01T15:25:03;6.50;99.90
22321;DHT22;11328;53.928;18.522;2023-03-01T15:27:32;6.50;99.90
22321;DHT22;11328;53.928;18.522;2023-03-01T15:30:01;6.50;99.90
22321;DHT22;11328;53.928;18.522;2023-03-01T15:32:31;6.50;99.90
22321;DHT22;11328;53.928;18.522;2023-03-01T15:35:41;6.30;99.90
22321;DHT22;11328;53.928;18.522;2023-03-01T15:41:28;6.20;99.90
22321;DHT22;11328;53.928;18.522;2023-03-01T15:44:25;6.10;99.90
22321;DHT22;11328;53.928;18.522;2023-03-01T15:47:40;6.10;99.90
22321;DHT22;11328;53.928;18.522;2023-03-01T15:50:27;6.20;99.90
22321;DHT22;11328;53.928;18.522;2023-03-01T15:52:58;6.20;99.90
22321;DHT22;11328;53.928;18.522;2023-03-01T15:55:30;6.00;99.90
22321;DHT22;11328;53.928;18.522;2023-03-01T16:00:40;5.90;99.90
22321;DHT22;11328;53.928;18.522;2023-03-01T16:03:27;5.90;99.90
22321;DHT22;11328;53.928;18.522;2023-03-01T16:05:56;5.80;99.90
22321;DHT22;11328;53.928;18.522;2023-03-01T16:08:23;5.70;99.90
22321;DHT22;11328;53.928;18.522;2023-03-01T16:10:51;5.60;99.90
22321;DHT22;11328;53.928;18.522;2023-03-01T16:13:21;5.50;99.90
22321;DHT22;11328;53.928;18.522;2023-03-01T16:15:50;5.40;99.90
22321;DHT22;11328;53.928;18.522;2023-03-01T16:18:21;5.30;99.90
22321;DHT22;11328;53.928;18.522;2023-03-01T16:20:54;5.20;99.90
22321;DHT22;11328;53.928;18.522;2023-03-01T16:23:25;5.10;99.90
22321;DHT22;11328;53.928;18.522;2023-03-01T16:25:59;5.00;99.90
22321;DHT22;11328;53.928;18.522;2023-03-01T16:28:27;5.00;99.90
22321;DHT22;11328;53.928;18.522;2023-03-01T16:30:55;4.90;99.90
22321;DHT22;11328;53.928;18.522;2023-03-01T16:33:24;4.80;99.90
22321;DHT22;11328;53.928;18.522;2023-03-01T16:36:01;4.80;99.90
22321;DHT22;11328;53.928;18.522;2023-03-01T16:38:36;4.70;99.90
22321;DHT22;11328;53.928;18.522;2023-03-01T16:41:04;4.70;99.90
22321;DHT22;11328;53.928;18.522;2023-03-01T16:43:32;4.70;99.90
22321;DHT22;11328;53.928;18.522;2023-03-01T16:46:10;4.60;99.90
22321;DHT22;11328;53.928;18.522;2023-03-01T16:48:41;4.60;99.90
22321;DHT22;11328;53.928;18.522;2023-03-01T16:51:09;4.60;99.90
22321;DHT22;11328;53.928;18.522;2023-03-01T16:53:38;4.50;99.90
22321;DHT22;11328;53.928;18.522;2023-03-01T16:56:07;4.60;99.90
22321;DHT22;11328;53.928;18.522;2023-03-01T16:58:38;4.50;99.90
22321;DHT22;11328;53.928;18.522;2023-03-01T17:01:10;4.50;99.90
22321;DHT22;11328;53.928;18.522;2023-03-01T17:03:40;4.40;99.90
22321;DHT22;11328;53.928;18.522;2023-03-01T17:06:10;4.40;99.90
22321;DHT22;11328;53.928;18.522;2023-03-01T17:08:43;4.30;99.90
22321;DHT22;11328;53.928;18.522;2023-03-01T17:11:16;4.20;99.90
22321;DHT22;11328;53.928;18.522;2023-03-01T17:13:44;4.10;99.90
22321;DHT22;11328;53.928;18.522;2023-03-01T17:16:14;4.10;99.90
22321;DHT22;11328;53.928;18.522;2023-03-01T17:18:43;4.00;99.90
22321;DHT22;11328;53.928;18.522;2023-03-01T17:21:11;4.00;99.90
22321;DHT22;11328;53.928;18.522;2023-03-01T17:23:42;4.00;99.90
22321;DHT22;11328;53.928;18.522;2023-03-01T17:26:10;3.90;99.90
22321;DHT22;11328;53.928;18.522;2023-03-01T17:28:39;3.80;99.90
22321;DHT22;11328;53.928;18.522;2023-03-01T17:31:07;3.70;99.90
22321;DHT22;11328;53.928;18.522;2023-03-01T17:33:35;3.60;99.90
22321;DHT22;11328;53.928;18.522;2023-03-01T17:36:03;3.60;99.90
22321;DHT22;11328;53.928;18.522;2023-03-01T17:38:32;3.50;99.90
22321;DHT22;11328;53.928;18.522;2023-03-01T17:41:00;3.50;99.90
22321;DHT22;11328;53.928;18.522;2023-03-01T17:43:28;3.50;99.90
22321;DHT22;11328;53.928;18.522;2023-03-01T17:45:56;3.40;99.90
22321;DHT22;11328;53.928;18.522;2023-03-01T17:48:25;3.40;99.90
22321;DHT22;11328;53.928;18.522;2023-03-01T17:50:54;3.30;99.90
22321;DHT22;11328;53.928;18.522;2023-03-01T17:53:22;3.20;99.90
22321;DHT22;11328;53.928;18.522;2023-03-01T17:55:57;3.10;99.90
22321;DHT22;11328;53.928;18.522;2023-03-01T17:58:28;3.10;99.90
22321;DHT22;11328;53.928;18.522;2023-03-01T18:01:14;3.10;99.90
22321;DHT22;11328;53.928;18.522;2023-03-01T18:03:43;3.10;99.90
22321;DHT22;11328;53.928;18.522;2023-03-01T18:06:21;3.00;99.90
22321;DHT22;11328;53.928;18.522;2023-03-01T18:08:53;3.00;99.90
22321;DHT22;11328;53.928;18.522;2023-03-01T18:11:24;2.90;99.90